sensor_id;sensor_type;location;lat;lon;timestamp;P1;P2;P0
44350;PMS5003;62766;62.622;17.912;2023-02-01T00:00:25;0;0;
44350;PMS5003;62766;62.622;17.912;2023-02-01T00:02:54;0;0;
44350;PMS5003;62766;62.622;17.912;2023-02-01T00:05:23;1;0;
44350;PMS5003;62766;62.622;17.912;2023-02-01T00:07:51;0;0;
44350;PMS5003;62766;62.622;17.912;2023-02-01T00:10:20;0;0;
44350;PMS5003;62766;62.622;17.912;2023-02-01T00:12:48;0;0;
44350;PMS5003;62766;62.622;17.912;2023-02-01T00:15:17;1;1;
44350;PMS5003;62766;62.622;17.912;2023-02-01T00:17:45;0;0;
44350;PMS5003;62766;62.622;17.912;2023-02-01T00:20:14;3;2;
44350;PMS5003;62766;62.622;17.912;2023-02-01T00:22:43;8;7;
44350;PMS5003;62766;62.622;17.912;2023-02-01T00:25:11;9;9;
44350;PMS5003;62766;62.622;17.912;2023-02-01T00:27:41;7;4;
44350;PMS5003;62766;62.622;17.912;2023-02-01T00:30:10;8;6;
44350;PMS5003;62766;62.622;17.912;2023-02-01T00:32:40;3;3;
44350;PMS5003;62766;62.622;17.912;2023-02-01T00:35:09;3;3;
44350;PMS5003;62766;62.622;17.912;2023-02-01T00:37:37;2;2;
44350;PMS5003;62766;62.622;17.912;2023-02-01T00:40:06;0;0;
44350;PMS5003;62766;62.622;17.912;2023-02-01T00:42:36;0;0;
44350;PMS5003;62766;62.622;17.912;2023-02-01T00:45:05;0;0;
44350;PMS5003;62766;62.622;17.912;2023-02-01T00:47:35;0;0;
44350;PMS5003;62766;62.622;17.912;2023-02-01T00:50:04;0;0;
44350;PMS5003;62766;62.622;17.912;2023-02-01T00:52:32;0;0;
44350;PMS5003;62766;62.622;17.912;2023-02-01T00:55:00;0;0;
44350;PMS5003;62766;62.622;17.912;2023-02-01T00:57:29;0;0;
44350;PMS5003;62766;62.622;17.912;2023-02-01T00:59:59;0;0;
44350;PMS5003;62766;62.622;17.912;2023-02-01T01:02:28;0;0;
44350;PMS5003;62766;62.622;17.912;2023-02-01T01:04:56;0;0;
44350;PMS5003;62766;62.622;17.912;2023-02-01T01:07:25;0;0;
44350;PMS5003;62766;62.622;17.912;2023-02-01T01:09:55;0;0;
44350;PMS5003;62766;62.622;17.912;2023-02-01T01:12:24;0;0;
44350;PMS5003;62766;62.622;17.912;2023-02-01T01:14:52;0;0;
44350;PMS5003;62766;62.622;17.912;2023-02-01T01:17:21;0;0;
44350;PMS5003;62766;62.622;17.912;2023-02-01T01:19:49;0;0;
44350;PMS5003;62766;62.622;17.912;2023-02-01T01:22:18;0;0;
44350;PMS5003;62766;62.622;17.912;2023-02-01T01:24:46;0;0;
44350;PMS5003;62766;62.622;17.912;2023-02-01T01:27:15;0;0;
44350;PMS5003;62766;62.622;17.912;2023-02-01T01:29:43;0;0;
44350;PMS5003;62766;62.622;17.912;2023-02-01T01:32:12;1;1;
44350;PMS5003;62766;62.622;17.912;2023-02-01T01:34:42;0;0;
44350;PMS5003;62766;62.622;17.912;2023-02-01T01:37:11;10;4;
44350;PMS5003;62766;62.622;17.912;2023-02-01T01:39:41;28;26;
44350;PMS5003;62766;62.622;17.912;2023-02-01T01:42:11;7;7;
44350;PMS5003;62766;62.622;17.912;2023-02-01T01:44:57;2;2;
44350;PMS5003;62766;62.622;17.912;2023-02-01T01:47:30;0;0;
44350;PMS5003;62766;62.622;17.912;2023-02-01T01:50:05;0;0;
44350;PMS5003;62766;62.622;17.912;2023-02-01T01:52:36;0;0;
44350;PMS5003;62766;62.622;17.912;2023-02-01T01:55:07;0;0;
44350;PMS5003;62766;62.622;17.912;2023-02-01T01:57:37;0;0;
44350;PMS5003;62766;62.622;17.912;2023-02-01T02:00:12;0;0;
44350;PMS5003;62766;62.622;17.912;2023-02-01T02:02:44;0;0;
44350;PMS5003;62766;62.622;17.912;2023-02-01T02:05:14;0;0;
44350;PMS5003;62766;62.622;17.912;2023-02-01T02:07:47;0;0;
44350;PMS5003;62766;62.622;17.912;2023-02-01T02:10:19;0;0;
44350;PMS5003;62766;62.622;17.912;2023-02-01T02:12:47;0;0;
44350;PMS5003;62766;62.622;17.912;2023-02-01T02:15:17;0;0;
44350;PMS5003;62766;62.622;17.912;2023-02-01T02:17:47;0;0;
44350;PMS5003;62766;62.622;17.912;2023-02-01T02:20:30;0;0;
44350;PMS5003;62766;62.622;17.912;2023-02-01T02:23:26;0;0;
44350;PMS5003;62766;62.622;17.912;2023-02-01T02:26:28;0;0;
44350;PMS5003;62766;62.622;17.912;2023-02-01T02:33:52;0;0;
44350;PMS5003;62766;62.622;17.912;2023-02-01T02:36:30;0;0;
44350;PMS5003;62766;62.622;17.912;2023-02-01T02:39:06;0;0;
44350;PMS5003;62766;62.622;17.912;2023-02-01T02:41:40;1;0;
44350;PMS5003;62766;62.622;17.912;2023-02-01T02:44:18;0;0;
44350;PMS5003;62766;62.622;17.912;2023-02-01T02:46:52;2;1;
44350;PMS5003;62766;62.622;17.912;2023-02-01T02:49:28;2;2;
44350;PMS5003;62766;62.622;17.912;2023-02-01T02:52:08;2;2;
44350;PMS5003;62766;62.622;17.912;2023-02-01T02:54:43;0;0;
44350;PMS5003;62766;62.622;17.912;2023-02-01T02:57:17;0;0;
44350;PMS5003;62766;62.622;17.912;2023-02-01T02:59:48;0;0;
44350;PMS5003;62766;62.622;17.912;2023-02-01T03:02:16;0;0;
44350;PMS5003;62766;62.622;17.912;2023-02-01T03:04:45;0;0;
44350;PMS5003;62766;62.622;17.912;2023-02-01T03:07:14;0;0;
44350;PMS5003;62766;62.622;17.912;2023-02-01T03:10:16;0;0;
44350;PMS5003;62766;62.622;17.912;2023-02-01T03:12:51;0;0;
44350;PMS5003;62766;62.622;17.912;2023-02-01T03:15:21;2;1;
44350;PMS5003;62766;62.622;17.912;2023-02-01T03:17:55;6;3;
44350;PMS5003;62766;62.622;17.912;2023-02-01T03:20:23;4;3;
44350;PMS5003;62766;62.622;17.912;2023-02-01T03:22:54;3;3;
44350;PMS5003;62766;62.622;17.912;2023-02-01T03:25:25;1;1;
44350;PMS5003;62766;62.622;17.912;2023-02-01T03:27:57;0;0;
44350;PMS5003;62766;62.622;17.912;2023-02-01T03:30:31;1;1;
44350;PMS5003;62766;62.622;17.912;2023-02-01T03:33:04;2;2;
44350;PMS5003;62766;62.622;17.912;2023-02-01T03:35:37;1;1;
44350;PMS5003;62766;62.622;17.912;2023-02-01T03:38:13;3;1;
44350;PMS5003;62766;62.622;17.912;2023-02-01T03:40:51;2;2;
44350;PMS5003;62766;62.622;17.912;2023-02-01T03:43:24;1;1;
44350;PMS5003;62766;62.622;17.912;2023-02-01T03:45:58;1;1;
44350;PMS5003;62766;62.622;17.912;2023-02-01T03:48:32;0;0;
44350;PMS5003;62766;62.622;17.912;2023-02-01T03:51:02;1;1;
44350;PMS5003;62766;62.622;17.912;2023-02-01T03:53:34;0;0;
44350;PMS5003;62766;62.622;17.912;2023-02-01T03:56:04;4;2;
44350;PMS5003;62766;62.622;17.912;2023-02-01T03:58:35;3;2;
44350;PMS5003;62766;62.622;17.912;2023-02-01T04:01:03;4;2;
44350;PMS5003;62766;62.622;17.912;2023-02-01T04:03:32;1;1;
44350;PMS5003;62766;62.622;17.912;2023-02-01T04:06:00;1;1;
44350;PMS5003;62766;62.622;17.912;2023-02-01T04:08:29;0;0;
44350;PMS5003;62766;62.622;17.912;2023-02-01T04:10:57;0;0;
44350;PMS5003;62766;62.622;17.912;2023-02-01T04:13:26;1;0;
44350;PMS5003;62766;62.622;17.912;2023-02-01T04:15:54;1;1;
44350;PMS5003;62766;62.622;17.912;2023-02-01T04:18:23;0;0;
44350;PMS5003;62766;62.622;17.912;2023-02-01T04:20:52;2;0;
44350;PMS5003;62766;62.622;17.912;2023-02-01T04:23:20;0;0;
44350;PMS5003;62766;62.622;17.912;2023-02-01T04:25:49;4;1;
44350;PMS5003;62766;62.622;17.912;2023-02-01T04:28:17;0;0;
44350;PMS5003;62766;62.622;17.912;2023-02-01T04:30:46;1;0;
44350;PMS5003;62766;62.622;17.912;2023-02-01T04:33:14;2;0;
44350;PMS5003;62766;62.622;17.912;2023-02-01T04:35:43;2;0;
44350;PMS5003;62766;62.622;17.912;2023-02-01T04:38:12;0;0;
44350;PMS5003;62766;62.622;17.912;2023-02-01T04:40:40;0;0;
44350;PMS5003;62766;62.622;17.912;2023-02-01T04:43:09;0;0;
44350;PMS5003;62766;62.622;17.912;2023-02-01T04:45:37;0;0;
44350;PMS5003;62766;62.622;17.912;2023-02-01T04:48:06;0;0;
44350;PMS5003;62766;62.622;17.912;2023-02-01T04:50:35;1;1;
44350;PMS5003;62766;62.622;17.912;2023-02-01T04:53:03;0;0;
44350;PMS5003;62766;62.622;17.912;2023-02-01T04:55:32;1;0;
44350;PMS5003;62766;62.622;17.912;2023-02-01T04:58:00;1;0;
44350;PMS5003;62766;62.622;17.912;2023-02-01T05:03:23;0;0;
44350;PMS5003;62766;62.622;17.912;2023-02-01T05:05:52;0;0;
44350;PMS5003;62766;62.622;17.912;2023-02-01T05:08:21;0;0;
44350;PMS5003;62766;62.622;17.912;2023-02-01T05:10:51;0;0;
44350;PMS5003;62766;62.622;17.912;2023-02-01T05:13:20;1;0;
44350;PMS5003;62766;62.622;17.912;2023-02-01T05:15:49;0;0;
44350;PMS5003;62766;62.622;17.912;2023-02-01T05:18:18;0;0;
44350;PMS5003;62766;62.622;17.912;2023-02-01T05:20:47;2;0;
44350;PMS5003;62766;62.622;17.912;2023-02-01T05:23:16;0;0;
44350;PMS5003;62766;62.622;17.912;2023-02-01T05:25:44;1;0;
44350;PMS5003;62766;62.622;17.912;2023-02-01T05:28:13;0;0;
44350;PMS5003;62766;62.622;17.912;2023-02-01T05:30:41;0;0;
44350;PMS5003;62766;62.622;17.912;2023-02-01T05:33:10;0;0;
44350;PMS5003;62766;62.622;17.912;2023-02-01T05:35:38;1;0;
44350;PMS5003;62766;62.622;17.912;2023-02-01T05:38:07;0;0;
44350;PMS5003;62766;62.622;17.912;2023-02-01T05:40:36;0;0;
44350;PMS5003;62766;62.622;17.912;2023-02-01T05:43:04;0;0;
44350;PMS5003;62766;62.622;17.912;2023-02-01T05:45:33;0;0;
44350;PMS5003;62766;62.622;17.912;2023-02-01T05:48:01;0;0;
44350;PMS5003;62766;62.622;17.912;2023-02-01T05:50:30;0;0;
44350;PMS5003;62766;62.622;17.912;2023-02-01T05:52:59;0;0;
44350;PMS5003;62766;62.622;17.912;2023-02-01T05:55:27;0;0;
44350;PMS5003;62766;62.622;17.912;2023-02-01T05:57:56;1;0;
44350;PMS5003;62766;62.622;17.912;2023-02-01T06:00:24;0;0;
44350;PMS5003;62766;62.622;17.912;2023-02-01T06:02:53;0;0;
44350;PMS5003;62766;62.622;17.912;2023-02-01T06:05:22;0;0;
44350;PMS5003;62766;62.622;17.912;2023-02-01T06:07:52;0;0;
44350;PMS5003;62766;62.622;17.912;2023-02-01T06:10:21;0;0;
44350;PMS5003;62766;62.622;17.912;2023-02-01T06:12:51;0;0;
44350;PMS5003;62766;62.622;17.912;2023-02-01T06:15:20;0;0;
44350;PMS5003;62766;62.622;17.912;2023-02-01T06:17:48;2;0;
44350;PMS5003;62766;62.622;17.912;2023-02-01T06:20:17;1;1;
44350;PMS5003;62766;62.622;17.912;2023-02-01T06:22:45;1;1;
44350;PMS5003;62766;62.622;17.912;2023-02-01T06:25:14;0;0;
44350;PMS5003;62766;62.622;17.912;2023-02-01T06:27:42;0;0;
44350;PMS5003;62766;62.622;17.912;2023-02-01T06:30:12;0;0;
44350;PMS5003;62766;62.622;17.912;2023-02-01T06:32:42;0;0;
44350;PMS5003;62766;62.622;17.912;2023-02-01T06:35:10;1;1;
44350;PMS5003;62766;62.622;17.912;2023-02-01T06:37:38;1;1;
44350;PMS5003;62766;62.622;17.912;2023-02-01T06:40:08;1;1;
44350;PMS5003;62766;62.622;17.912;2023-02-01T06:42:37;0;0;
44350;PMS5003;62766;62.622;17.912;2023-02-01T06:45:06;0;0;
44350;PMS5003;62766;62.622;17.912;2023-02-01T06:47:36;0;0;
44350;PMS5003;62766;62.622;17.912;2023-02-01T06:50:05;0;0;
44350;PMS5003;62766;62.622;17.912;2023-02-01T06:52:34;1;0;
44350;PMS5003;62766;62.622;17.912;2023-02-01T06:55:04;0;0;
44350;PMS5003;62766;62.622;17.912;2023-02-01T06:57:34;0;0;
44350;PMS5003;62766;62.622;17.912;2023-02-01T07:00:04;0;0;
44350;PMS5003;62766;62.622;17.912;2023-02-01T07:02:33;0;0;
44350;PMS5003;62766;62.622;17.912;2023-02-01T07:05:02;2;1;
44350;PMS5003;62766;62.622;17.912;2023-02-01T07:07:30;0;0;
44350;PMS5003;62766;62.622;17.912;2023-02-01T07:09:59;0;0;
44350;PMS5003;62766;62.622;17.912;2023-02-01T07:12:28;0;0;
44350;PMS5003;62766;62.622;17.912;2023-02-01T07:14:56;0;0;
44350;PMS5003;62766;62.622;17.912;2023-02-01T07:17:25;0;0;
44350;PMS5003;62766;62.622;17.912;2023-02-01T07:19:53;0;0;
44350;PMS5003;62766;62.622;17.912;2023-02-01T07:22:22;1;0;
44350;PMS5003;62766;62.622;17.912;2023-02-01T07:24:51;0;0;
44350;PMS5003;62766;62.622;17.912;2023-02-01T07:27:19;0;0;
44350;PMS5003;62766;62.622;17.912;2023-02-01T07:29:48;0;0;
44350;PMS5003;62766;62.622;17.912;2023-02-01T07:32:16;0;0;
44350;PMS5003;62766;62.622;17.912;2023-02-01T07:34:45;0;0;
44350;PMS5003;62766;62.622;17.912;2023-02-01T07:37:14;0;0;
44350;PMS5003;62766;62.622;17.912;2023-02-01T07:39:42;0;0;
44350;PMS5003;62766;62.622;17.912;2023-02-01T07:42:11;0;0;
44350;PMS5003;62766;62.622;17.912;2023-02-01T07:44:40;0;0;
44350;PMS5003;62766;62.622;17.912;2023-02-01T07:47:08;0;0;
44350;PMS5003;62766;62.622;17.912;2023-02-01T07:49:37;0;0;
44350;PMS5003;62766;62.622;17.912;2023-02-01T07:52:05;0;0;
44350;PMS5003;62766;62.622;17.912;2023-02-01T07:54:35;0;0;
44350;PMS5003;62766;62.622;17.912;2023-02-01T07:57:04;0;0;
44350;PMS5003;62766;62.622;17.912;2023-02-01T07:59:33;0;0;
44350;PMS5003;62766;62.622;17.912;2023-02-01T08:02:02;0;0;
44350;PMS5003;62766;62.622;17.912;2023-02-01T08:04:30;0;0;
44350;PMS5003;62766;62.622;17.912;2023-02-01T08:06:59;0;0;
44350;PMS5003;62766;62.622;17.912;2023-02-01T08:09:27;0;0;
44350;PMS5003;62766;62.622;17.912;2023-02-01T08:11:56;0;0;
44350;PMS5003;62766;62.622;17.912;2023-02-01T08:14:25;3;0;
44350;PMS5003;62766;62.622;17.912;2023-02-01T08:16:53;1;1;
44350;PMS5003;62766;62.622;17.912;2023-02-01T08:19:22;2;2;
44350;PMS5003;62766;62.622;17.912;2023-02-01T08:21:52;1;1;
44350;PMS5003;62766;62.622;17.912;2023-02-01T08:24:21;1;1;
44350;PMS5003;62766;62.622;17.912;2023-02-01T08:26:51;1;1;
44350;PMS5003;62766;62.622;17.912;2023-02-01T08:29:20;0;0;
44350;PMS5003;62766;62.622;17.912;2023-02-01T08:31:48;1;1;
44350;PMS5003;62766;62.622;17.912;2023-02-01T08:34:17;2;1;
44350;PMS5003;62766;62.622;17.912;2023-02-01T08:36:46;4;3;
44350;PMS5003;62766;62.622;17.912;2023-02-01T08:39:14;3;3;
44350;PMS5003;62766;62.622;17.912;2023-02-01T08:41:43;0;0;
44350;PMS5003;62766;62.622;17.912;2023-02-01T08:44:11;0;0;
44350;PMS5003;62766;62.622;17.912;2023-02-01T08:46:41;1;1;
44350;PMS5003;62766;62.622;17.912;2023-02-01T08:49:09;1;1;
44350;PMS5003;62766;62.622;17.912;2023-02-01T08:51:38;1;1;
44350;PMS5003;62766;62.622;17.912;2023-02-01T08:54:06;2;1;
44350;PMS5003;62766;62.622;17.912;2023-02-01T08:56:35;0;0;
44350;PMS5003;62766;62.622;17.912;2023-02-01T08:59:03;0;0;
44350;PMS5003;62766;62.622;17.912;2023-02-01T09:01:32;0;0;
44350;PMS5003;62766;62.622;17.912;2023-02-01T09:04:01;0;0;
44350;PMS5003;62766;62.622;17.912;2023-02-01T09:06:29;2;1;
44350;PMS5003;62766;62.622;17.912;2023-02-01T09:08:58;0;0;
44350;PMS5003;62766;62.622;17.912;2023-02-01T09:11:27;1;0;
44350;PMS5003;62766;62.622;17.912;2023-02-01T09:13:55;0;0;
44350;PMS5003;62766;62.622;17.912;2023-02-01T09:16:24;0;0;
44350;PMS5003;62766;62.622;17.912;2023-02-01T09:18:52;1;0;
44350;PMS5003;62766;62.622;17.912;2023-02-01T09:21:21;0;0;
44350;PMS5003;62766;62.622;17.912;2023-02-01T09:23:51;0;0;
44350;PMS5003;62766;62.622;17.912;2023-02-01T09:26:21;0;0;
44350;PMS5003;62766;62.622;17.912;2023-02-01T09:28:50;0;0;
44350;PMS5003;62766;62.622;17.912;2023-02-01T09:31:19;1;1;
44350;PMS5003;62766;62.622;17.912;2023-02-01T09:33:47;0;0;
44350;PMS5003;62766;62.622;17.912;2023-02-01T09:36:16;0;0;
44350;PMS5003;62766;62.622;17.912;2023-02-01T09:38:44;0;0;
44350;PMS5003;62766;62.622;17.912;2023-02-01T09:41:17;0;0;
44350;PMS5003;62766;62.622;17.912;2023-02-01T09:43:59;0;0;
44350;PMS5003;62766;62.622;17.912;2023-02-01T09:46:36;0;0;
44350;PMS5003;62766;62.622;17.912;2023-02-01T09:49:05;0;0;
44350;PMS5003;62766;62.622;17.912;2023-02-01T09:51:41;0;0;
44350;PMS5003;62766;62.622;17.912;2023-02-01T09:54:15;0;0;
44350;PMS5003;62766;62.622;17.912;2023-02-01T09:56:47;0;0;
44350;PMS5003;62766;62.622;17.912;2023-02-01T09:59:25;1;0;
44350;PMS5003;62766;62.622;17.912;2023-02-01T10:02:01;0;0;
44350;PMS5003;62766;62.622;17.912;2023-02-01T10:04:33;0;0;
44350;PMS5003;62766;62.622;17.912;2023-02-01T10:07:04;0;0;
44350;PMS5003;62766;62.622;17.912;2023-02-01T10:09:44;0;0;
44350;PMS5003;62766;62.622;17.912;2023-02-01T10:13:34;1;1;
44350;PMS5003;62766;62.622;17.912;2023-02-01T10:16:17;0;0;
44350;PMS5003;62766;62.622;17.912;2023-02-01T10:19:02;0;0;
44350;PMS5003;62766;62.622;17.912;2023-02-01T10:21:51;0;0;
44350;PMS5003;62766;62.622;17.912;2023-02-01T10:24:34;0;0;
44350;PMS5003;62766;62.622;17.912;2023-02-01T10:27:13;0;0;
44350;PMS5003;62766;62.622;17.912;2023-02-01T10:29:45;0;0;
44350;PMS5003;62766;62.622;17.912;2023-02-01T10:32:20;0;0;
44350;PMS5003;62766;62.622;17.912;2023-02-01T10:34:52;0;0;
44350;PMS5003;62766;62.622;17.912;2023-02-01T10:37:27;0;0;
44350;PMS5003;62766;62.622;17.912;2023-02-01T10:39:59;0;0;
44350;PMS5003;62766;62.622;17.912;2023-02-01T10:42:30;0;0;
44350;PMS5003;62766;62.622;17.912;2023-02-01T10:44:59;0;0;
44350;PMS5003;62766;62.622;17.912;2023-02-01T10:47:30;1;1;
44350;PMS5003;62766;62.622;17.912;2023-02-01T10:50:02;0;0;
44350;PMS5003;62766;62.622;17.912;2023-02-01T10:52:42;0;0;
44350;PMS5003;62766;62.622;17.912;2023-02-01T10:55:25;0;0;
44350;PMS5003;62766;62.622;17.912;2023-02-01T10:57:56;0;0;
44350;PMS5003;62766;62.622;17.912;2023-02-01T11:03:39;0;0;
44350;PMS5003;62766;62.622;17.912;2023-02-01T11:06:10;0;0;
44350;PMS5003;62766;62.622;17.912;2023-02-01T11:08:45;0;0;
44350;PMS5003;62766;62.622;17.912;2023-02-01T11:11:16;0;0;
44350;PMS5003;62766;62.622;17.912;2023-02-01T11:13:45;1;1;
44350;PMS5003;62766;62.622;17.912;2023-02-01T11:16:23;0;0;
44350;PMS5003;62766;62.622;17.912;2023-02-01T11:18:57;0;0;
44350;PMS5003;62766;62.622;17.912;2023-02-01T11:21:26;0;0;
44350;PMS5003;62766;62.622;17.912;2023-02-01T11:23:55;0;0;
44350;PMS5003;62766;62.622;17.912;2023-02-01T11:26:28;0;0;
44350;PMS5003;62766;62.622;17.912;2023-02-01T11:28:59;0;0;
44350;PMS5003;62766;62.622;17.912;2023-02-01T11:31:32;0;0;
44350;PMS5003;62766;62.622;17.912;2023-02-01T11:34:05;0;0;
44350;PMS5003;62766;62.622;17.912;2023-02-01T11:36:40;4;1;
44350;PMS5003;62766;62.622;17.912;2023-02-01T11:39:17;0;0;
44350;PMS5003;62766;62.622;17.912;2023-02-01T11:41:55;0;0;
44350;PMS5003;62766;62.622;17.912;2023-02-01T11:44:30;0;0;
44350;PMS5003;62766;62.622;17.912;2023-02-01T11:47:38;0;0;
44350;PMS5003;62766;62.622;17.912;2023-02-01T11:50:15;0;0;
44350;PMS5003;62766;62.622;17.912;2023-02-01T11:52:50;0;0;
44350;PMS5003;62766;62.622;17.912;2023-02-01T11:55:36;1;0;
44350;PMS5003;62766;62.622;17.912;2023-02-01T11:58:17;4;2;
44350;PMS5003;62766;62.622;17.912;2023-02-01T12:00:57;0;0;
44350;PMS5003;62766;62.622;17.912;2023-02-01T12:03:39;0;0;
44350;PMS5003;62766;62.622;17.912;2023-02-01T12:06:22;0;0;
44350;PMS5003;62766;62.622;17.912;2023-02-01T12:09:06;2;2;
44350;PMS5003;62766;62.622;17.912;2023-02-01T12:11:48;0;0;
44350;PMS5003;62766;62.622;17.912;2023-02-01T12:14:33;0;0;
44350;PMS5003;62766;62.622;17.912;2023-02-01T12:17:21;0;0;
44350;PMS5003;62766;62.622;17.912;2023-02-01T12:20:10;0;0;
44350;PMS5003;62766;62.622;17.912;2023-02-01T12:22:56;0;0;
44350;PMS5003;62766;62.622;17.912;2023-02-01T12:25:40;1;1;
44350;PMS5003;62766;62.622;17.912;2023-02-01T12:28:31;1;1;
44350;PMS5003;62766;62.622;17.912;2023-02-01T12:31:14;2;2;
44350;PMS5003;62766;62.622;17.912;2023-02-01T12:34:07;2;2;
44350;PMS5003;62766;62.622;17.912;2023-02-01T12:36:50;2;2;
44350;PMS5003;62766;62.622;17.912;2023-02-01T12:39:29;2;2;
44350;PMS5003;62766;62.622;17.912;2023-02-01T12:42:01;4;2;
44350;PMS5003;62766;62.622;17.912;2023-02-01T12:44:40;0;0;
44350;PMS5003;62766;62.622;17.912;2023-02-01T12:47:17;1;1;
44350;PMS5003;62766;62.622;17.912;2023-02-01T12:49:52;2;0;
44350;PMS5003;62766;62.622;17.912;2023-02-01T12:52:27;2;2;
44350;PMS5003;62766;62.622;17.912;2023-02-01T12:55:03;1;1;
44350;PMS5003;62766;62.622;17.912;2023-02-01T12:57:42;0;0;
44350;PMS5003;62766;62.622;17.912;2023-02-01T13:00:16;1;1;
44350;PMS5003;62766;62.622;17.912;2023-02-01T13:02:52;2;2;
44350;PMS5003;62766;62.622;17.912;2023-02-01T13:05:29;0;0;
44350;PMS5003;62766;62.622;17.912;2023-02-01T13:08:02;0;0;
44350;PMS5003;62766;62.622;17.912;2023-02-01T13:10:36;3;3;
44350;PMS5003;62766;62.622;17.912;2023-02-01T13:13:11;6;3;
44350;PMS5003;62766;62.622;17.912;2023-02-01T13:15:47;2;2;
44350;PMS5003;62766;62.622;17.912;2023-02-01T13:18:22;1;1;
44350;PMS5003;62766;62.622;17.912;2023-02-01T13:20:58;2;2;
44350;PMS5003;62766;62.622;17.912;2023-02-01T13:23:31;1;1;
44350;PMS5003;62766;62.622;17.912;2023-02-01T13:26:03;1;1;
44350;PMS5003;62766;62.622;17.912;2023-02-01T13:28:33;0;0;
44350;PMS5003;62766;62.622;17.912;2023-02-01T13:31:16;1;1;
44350;PMS5003;62766;62.622;17.912;2023-02-01T13:36:02;0;0;
44350;PMS5003;62766;62.622;17.912;2023-02-01T13:38:48;0;0;
44350;PMS5003;62766;62.622;17.912;2023-02-01T13:41:31;1;1;
44350;PMS5003;62766;62.622;17.912;2023-02-01T13:44:09;0;0;
44350;PMS5003;62766;62.622;17.912;2023-02-01T13:46:43;2;2;
44350;PMS5003;62766;62.622;17.912;2023-02-01T13:49:17;3;3;
44350;PMS5003;62766;62.622;17.912;2023-02-01T13:51:51;1;1;
44350;PMS5003;62766;62.622;17.912;2023-02-01T13:54:26;3;1;
44350;PMS5003;62766;62.622;17.912;2023-02-01T13:56:57;2;2;
44350;PMS5003;62766;62.622;17.912;2023-02-01T13:59:51;2;2;
44350;PMS5003;62766;62.622;17.912;2023-02-01T14:03:01;4;3;
44350;PMS5003;62766;62.622;17.912;2023-02-01T14:06:43;3;2;
44350;PMS5003;62766;62.622;17.912;2023-02-01T14:09:14;7;7;
44350;PMS5003;62766;62.622;17.912;2023-02-01T14:11:47;12;12;
44350;PMS5003;62766;62.622;17.912;2023-02-01T14:14:38;15;13;
44350;PMS5003;62766;62.622;17.912;2023-02-01T14:20:39;6;5;
44350;PMS5003;62766;62.622;17.912;2023-02-01T14:23:12;3;3;
44350;PMS5003;62766;62.622;17.912;2023-02-01T14:25:44;4;3;
44350;PMS5003;62766;62.622;17.912;2023-02-01T14:28:25;2;2;
44350;PMS5003;62766;62.622;17.912;2023-02-01T14:30:57;4;2;
44350;PMS5003;62766;62.622;17.912;2023-02-01T14:33:27;2;2;
44350;PMS5003;62766;62.622;17.912;2023-02-01T14:36:00;2;2;
44350;PMS5003;62766;62.622;17.912;2023-02-01T14:38:35;2;2;
44350;PMS5003;62766;62.622;17.912;2023-02-01T14:41:14;2;2;
44350;PMS5003;62766;62.622;17.912;2023-02-01T14:44:13;2;2;
44350;PMS5003;62766;62.622;17.912;2023-02-01T14:47:04;1;1;
44350;PMS5003;62766;62.622;17.912;2023-02-01T14:49:37;1;1;
44350;PMS5003;62766;62.622;17.912;2023-02-01T14:52:12;2;1;
44350;PMS5003;62766;62.622;17.912;2023-02-01T14:54:45;1;1;
44350;PMS5003;62766;62.622;17.912;2023-02-01T14:57:19;4;3;
44350;PMS5003;62766;62.622;17.912;2023-02-01T14:59:53;5;3;
44350;PMS5003;62766;62.622;17.912;2023-02-01T15:02:28;5;5;
44350;PMS5003;62766;62.622;17.912;2023-02-01T15:04:56;5;2;
44350;PMS5003;62766;62.622;17.912;2023-02-01T15:07:25;3;3;
44350;PMS5003;62766;62.622;17.912;2023-02-01T15:09:56;1;1;
44350;PMS5003;62766;62.622;17.912;2023-02-01T15:12:26;0;0;
44350;PMS5003;62766;62.622;17.912;2023-02-01T15:15:13;1;1;
44350;PMS5003;62766;62.622;17.912;2023-02-01T15:17:49;2;2;
44350;PMS5003;62766;62.622;17.912;2023-02-01T15:20:18;0;0;
44350;PMS5003;62766;62.622;17.912;2023-02-01T15:22:51;1;1;
44350;PMS5003;62766;62.622;17.912;2023-02-01T15:25:22;0;0;
44350;PMS5003;62766;62.622;17.912;2023-02-01T15:27:52;0;0;
44350;PMS5003;62766;62.622;17.912;2023-02-01T15:30:21;0;0;
44350;PMS5003;62766;62.622;17.912;2023-02-01T15:32:51;1;1;
44350;PMS5003;62766;62.622;17.912;2023-02-01T15:35:34;0;0;
44350;PMS5003;62766;62.622;17.912;2023-02-01T15:38:38;0;0;
44350;PMS5003;62766;62.622;17.912;2023-02-01T15:41:09;2;0;
44350;PMS5003;62766;62.622;17.912;2023-02-01T15:43:43;1;1;
44350;PMS5003;62766;62.622;17.912;2023-02-01T15:46:16;0;0;
44350;PMS5003;62766;62.622;17.912;2023-02-01T15:48:50;0;0;
44350;PMS5003;62766;62.622;17.912;2023-02-01T15:51:22;1;1;
44350;PMS5003;62766;62.622;17.912;2023-02-01T15:53:57;0;0;
44350;PMS5003;62766;62.622;17.912;2023-02-01T15:56:32;1;0;
44350;PMS5003;62766;62.622;17.912;2023-02-01T15:59:06;0;0;
44350;PMS5003;62766;62.622;17.912;2023-02-01T16:01:43;0;0;
44350;PMS5003;62766;62.622;17.912;2023-02-01T16:04:20;2;2;
44350;PMS5003;62766;62.622;17.912;2023-02-01T16:06:52;2;2;
44350;PMS5003;62766;62.622;17.912;2023-02-01T16:09:24;13;10;
44350;PMS5003;62766;62.622;17.912;2023-02-01T16:12:03;18;16;
44350;PMS5003;62766;62.622;17.912;2023-02-01T16:14:49;10;8;
44350;PMS5003;62766;62.622;17.912;2023-02-01T16:17:17;2;2;
44350;PMS5003;62766;62.622;17.912;2023-02-01T16:19:46;0;0;
44350;PMS5003;62766;62.622;17.912;2023-02-01T16:22:19;1;1;
44350;PMS5003;62766;62.622;17.912;2023-02-01T16:24:48;0;0;
44350;PMS5003;62766;62.622;17.912;2023-02-01T16:27:17;0;0;
44350;PMS5003;62766;62.622;17.912;2023-02-01T16:29:46;0;0;
44350;PMS5003;62766;62.622;17.912;2023-02-01T16:32:15;1;1;
44350;PMS5003;62766;62.622;17.912;2023-02-01T16:34:46;1;1;
44350;PMS5003;62766;62.622;17.912;2023-02-01T16:37:16;1;0;
44350;PMS5003;62766;62.622;17.912;2023-02-01T16:39:47;0;0;
44350;PMS5003;62766;62.622;17.912;2023-02-01T16:42:16;0;0;
44350;PMS5003;62766;62.622;17.912;2023-02-01T16:44:44;0;0;
44350;PMS5003;62766;62.622;17.912;2023-02-01T16:47:14;3;3;
44350;PMS5003;62766;62.622;17.912;2023-02-01T16:49:45;6;6;
44350;PMS5003;62766;62.622;17.912;2023-02-01T16:52:15;9;7;
44350;PMS5003;62766;62.622;17.912;2023-02-01T16:54:46;0;0;
44350;PMS5003;62766;62.622;17.912;2023-02-01T16:57:16;3;0;
44350;PMS5003;62766;62.622;17.912;2023-02-01T16:59:45;4;2;
44350;PMS5003;62766;62.622;17.912;2023-02-01T17:03:18;0;0;
44350;PMS5003;62766;62.622;17.912;2023-02-01T17:05:49;0;0;
44350;PMS5003;62766;62.622;17.912;2023-02-01T17:08:20;0;0;
44350;PMS5003;62766;62.622;17.912;2023-02-01T17:10:54;0;0;
44350;PMS5003;62766;62.622;17.912;2023-02-01T17:13:23;0;0;
44350;PMS5003;62766;62.622;17.912;2023-02-01T17:15:52;1;1;
44350;PMS5003;62766;62.622;17.912;2023-02-01T17:18:31;2;2;
44350;PMS5003;62766;62.622;17.912;2023-02-01T17:21:03;3;3;
44350;PMS5003;62766;62.622;17.912;2023-02-01T17:23:33;4;3;
44350;PMS5003;62766;62.622;17.912;2023-02-01T17:26:02;3;3;
44350;PMS5003;62766;62.622;17.912;2023-02-01T17:28:30;6;3;